YBMKYBPN

Guest
Details From YBMK - Mackay
To YBPN - Proserpine Whitsunday Coast
Flight Number -
Tags generated
Created
Modified
Stats Distance 54 nm / 100 km
Max Altitude 0 ft / 0 m
Waypoints 3
Social Downloads 0
Likes 0
Share VATSIM

Download

Looking for another format? Having issues loading an existing format? Contact us
Advertisement - Login to hide

Notes

Basic altitude profile: - Ascent Rate: 2500ft/min - Ascent Speed: 250kts - Cruise Altitude: 35000ft - Cruise Speed: 420kts - Descent Rate: 1500ft/min - Descent Speed: 250kts Options: - Use NATs: yes - Use PACOTS: no - Use low airways: yes - Use high airways: no

Route

YBMK PN YBPN

ID Type Via Altitude Latitude Longitude Leg Dist Tot Dist Heading (true) Name
O YBMK APT - 0 ft / 0 m -21.17161˚ 149.18113˚ - 0 nm - Mackay
PN VOR - 0 ft / 0 m -20.49667˚ 148.55278˚ 53 nm 53 nm 319° / 319° PROSERPINE VOR-DME
O YBPN APT - 0 ft / 0 m -20.49333˚ 148.55701˚ 0 nm 54 nm 50° / 50° Proserpine Whitsunday Coast

Altitude Profile

Advertisement - Login to hide

YBMK

Details ICAO YBMK (MKY)
Name Mackay
Region Australia
Timezone Australia/Brisbane (UTC+10.0)
Stats Elevation 18 ft / 5 m (AMSL)
Location -21.171614° 149.181130°
Runways 2
Magnetic Variation 8.382° E

METAR

YBMK 170600Z AUTO 11014KT 9999 // NCD 29/19 Q1011

Decode

TAF

Not found

Departure Runways

ID Width Length Bearing (true) Bearing (mag) Surface Threshold Offset Overrun Length
05 98 ft / 30 m 4,411 ft / 1,344 m 57.80° 49.42° Asphalt 194 ft / 59 m 0 ft / 0 m
14 148 ft / 45 m 6,516 ft / 1,986 m 147.90° 139.52° Asphalt 0 ft / 0 m 0 ft / 0 m
23 98 ft / 30 m 4,411 ft / 1,344 m 237.80° 229.42° Asphalt 0 ft / 0 m 0 ft / 0 m
32 148 ft / 45 m 6,516 ft / 1,986 m 327.90° 319.52° Asphalt 0 ft / 0 m 0 ft / 0 m

YBPN

Details ICAO YBPN (PPP)
Name Proserpine Whitsunday Coast
Region Australia
Timezone Australia/Brisbane (UTC+10.0)
Stats Elevation 82 ft / 25 m (AMSL)
Location -20.493332° 148.557010°
Runways 2
Magnetic Variation 8.083° E

METAR

YBPN 170600Z AUTO 10014KT 9999 // NCD 29/18 Q1010

Decode

TAF

Not found

Destination Runways

ID Width Length Bearing (true) Bearing (mag) Surface Threshold Offset Overrun Length
06 98 ft / 30 m 4,104 ft / 1,251 m 67.07° 58.99° Asphalt 0 ft / 0 m 0 ft / 0 m
11 148 ft / 45 m 6,802 ft / 2,073 m 114.60° 106.52° Asphalt 0 ft / 0 m 0 ft / 0 m
24 98 ft / 30 m 4,104 ft / 1,251 m 247.07° 238.99° Asphalt 0 ft / 0 m 0 ft / 0 m
29 148 ft / 45 m 6,802 ft / 2,073 m 294.60° 286.52° Asphalt 0 ft / 0 m 230 ft / 70 m

Popular Alternatives